6CM weather

Chapman Memorial Field
Centerburg, Ohio, United States

Public forecast

Using degrees Fahrenheit for public forecast. Weather courtesy of forecast.io.

Closest aviation weather report (METAR) to Chapman Memorial Field

Closest report is Knox County Airport, 9.7 nm (18.0 km) ENE. Retrieved 2020/01/23 13:35 UTC (8 minutes ago):

K4I3 231335Z AUTO 00000KT 10SM CLR M02/M08 A3024 RMK AO2

Closest aviation forecast (TAF) to Chapman Memorial Field

Closest forecast is John Glenn Columbus International Airport, 19.3 nm (35.7 km) SSW. Retrieved 2020/01/23 12:33 UTC (1 hour ago):

TAF KCMH 231130Z 2312/2412 VRB03KT P6SM OVC150 FM231500 16006KT P6SM OVC150 FM240100 11008KT P6SM OVC040 FM240900 11007KT P6SM -RA SCT025 OVC040